Springfield, Nebraska
Current Conditions -  °F | °C
As of 2:55 PM on Thursday 27 Nov 2014 (Local Time) from KMLE Reporting Station
Clear Clear  
Wind Chill: 14°   Ceiling: Unl
Heat Index: 25°   Visibility: 10mi
Dew Point:   Wind: 12mph
Humidity: 49%   Direction: 120°ESE
Pressure: 30.36"   Gusts: NA
Location:  41.08°N, 96.13°W
Report Text: KMLE 272055Z AUTO 12010KT 10SM CLR M04/M13 A3036 RMK AO2 T10401134
Loading
Personal Weather Stations






























Interactive Weather Map New forecast layout! Learn more

10-Day Weather Forecast

Advertisements
Track Severe Weather on mobile